createdAt,value
2023-01-13T05:15:18.821Z,85.82
2023-01-13T05:16:18.839Z,85.82
2023-01-13T05:17:18.781Z,85.41
2023-01-13T05:18:18.785Z,85.41
2023-01-13T05:19:18.771Z,84.69
2023-01-13T05:20:18.742Z,84.90
2023-01-13T05:21:18.740Z,85.00
2023-01-13T05:22:18.719Z,85.11
2023-01-13T05:23:18.719Z,85.31
2023-01-13T05:24:18.692Z,85.21
2023-01-13T05:25:18.695Z,85.21
2023-01-13T05:26:18.663Z,84.69
2023-01-13T05:27:18.650Z,84.59
2023-01-13T05:28:18.654Z,84.69
2023-01-13T05:29:18.631Z,85.11
2023-01-13T05:30:18.609Z,85.41
2023-01-13T05:31:18.687Z,85.52
2023-01-13T05:32:18.595Z,85.62
2023-01-13T05:33:18.586Z,85.41
2023-01-13T05:34:18.564Z,85.31
2023-01-13T05:35:18.567Z,85.72
2023-01-13T05:36:18.540Z,85.72
2023-01-13T05:37:18.528Z,85.97
2023-01-13T05:38:18.671Z,86.07
2023-01-13T05:39:18.499Z,86.48
2023-01-13T05:40:18.508Z,86.17
2023-01-13T05:41:18.481Z,86.27
2023-01-13T05:42:18.453Z,86.38
2023-01-13T05:43:18.463Z,85.86
2023-01-13T05:44:18.457Z,85.86
2023-01-13T05:45:18.439Z,85.55
2023-01-13T05:46:18.453Z,85.25
2023-01-13T05:47:18.397Z,84.59
2023-01-13T05:48:18.429Z,84.49
2023-01-13T05:49:18.377Z,84.49
2023-01-13T05:50:18.370Z,84.80
2023-01-13T05:51:18.358Z,84.69
2023-01-13T05:52:18.327Z,84.84
2023-01-13T05:53:18.361Z,84.69
2023-01-13T05:54:18.308Z,85.14
2023-01-13T05:55:18.307Z,85.25
2023-01-13T05:56:18.284Z,85.55
2023-01-13T05:57:18.258Z,85.66
2023-01-13T05:58:18.255Z,85.86
2023-01-13T05:59:18.234Z,86.07
2023-01-13T06:00:18.222Z,86.17
2023-01-13T06:01:18.237Z,85.97
2023-01-13T06:02:18.202Z,86.07
2023-01-13T06:03:18.285Z,86.27
2023-01-13T06:04:18.201Z,86.68
2023-01-13T06:05:18.163Z,86.93
2023-01-13T06:06:18.161Z,87.04
2023-01-13T06:07:18.141Z,87.13
2023-01-13T06:08:18.125Z,87.34
2023-01-13T06:09:18.106Z,87.34
2023-01-13T06:10:18.099Z,87.65
2023-01-13T06:11:18.079Z,87.75
2023-01-13T06:12:18.075Z,87.55
2023-01-13T06:13:18.059Z,87.34
2023-01-13T06:14:18.034Z,87.24
2023-01-13T06:15:18.033Z,87.30
2023-01-13T06:16:18.034Z,87.30
2023-01-13T06:17:17.994Z,87.40
2023-01-13T06:18:17.995Z,87.30
2023-01-13T06:19:17.987Z,87.30
2023-01-13T06:20:17.954Z,87.61
2023-01-13T06:21:17.948Z,87.71
2023-01-13T06:22:17.931Z,87.96
2023-01-13T06:23:17.932Z,88.06
2023-01-13T06:24:17.921Z,88.27
2023-01-13T06:25:17.896Z,88.47
2023-01-13T06:26:17.874Z,88.47
2023-01-13T06:27:17.873Z,88.57
2023-01-13T06:28:17.851Z,88.68
2023-01-13T06:29:17.856Z,88.57
2023-01-13T06:30:17.828Z,88.57
2023-01-13T06:31:17.858Z,88.78
2023-01-13T06:32:17.807Z,88.89
2023-01-13T06:33:17.803Z,88.47
2023-01-13T06:34:17.793Z,88.57
2023-01-13T06:35:17.764Z,88.37
2023-01-13T06:36:17.754Z,88.27
2023-01-13T06:37:17.732Z,88.47
2023-01-13T06:38:17.721Z,88.47
2023-01-13T06:39:17.728Z,88.17
2023-01-13T06:40:17.691Z,88.27
2023-01-13T06:41:17.701Z,87.96
2023-01-13T06:42:17.662Z,87.82
2023-01-13T06:43:17.872Z,88.02
2023-01-13T06:44:17.652Z,88.06
2023-01-13T06:45:17.631Z,87.61
2023-01-13T06:46:17.677Z,87.71
2023-01-13T06:47:17.602Z,87.82
2023-01-13T06:48:17.787Z,87.82
2023-01-13T06:49:17.590Z,87.92
2023-01-13T06:50:17.573Z,87.96
2023-01-13T06:51:17.552Z,88.06
2023-01-13T06:52:17.539Z,87.75
2023-01-13T06:53:17.534Z,87.85
2023-01-13T06:54:17.520Z,87.96
2023-01-13T06:55:17.520Z,87.85
2023-01-13T06:56:17.490Z,87.75
2023-01-13T06:57:17.467Z,87.65
2023-01-13T06:58:17.470Z,87.45
2023-01-13T06:59:17.470Z,87.34
2023-01-13T07:00:17.658Z,87.24
2023-01-13T07:01:17.540Z,87.24
2023-01-13T07:02:17.513Z,87.45
2023-01-13T07:03:17.393Z,87.45
2023-01-13T07:04:17.406Z,87.55
2023-01-13T07:05:17.375Z,87.65
2023-01-13T07:06:17.356Z,87.55
2023-01-13T07:07:17.352Z,87.85
2023-01-13T07:08:17.330Z,87.96
2023-01-13T07:09:17.379Z,88.17
2023-01-13T07:10:17.307Z,88.51
2023-01-13T07:11:17.292Z,88.00
2023-01-13T07:12:17.284Z,87.90
2023-01-13T07:13:17.257Z,87.69
2023-01-13T07:14:17.268Z,87.28
2023-01-13T07:15:17.227Z,87.38
2023-01-13T07:16:17.278Z,86.66
2023-01-13T07:17:17.207Z,86.11
2023-01-13T07:18:17.197Z,85.70
2023-01-13T07:19:17.196Z,85.60
2023-01-13T07:20:17.166Z,85.39
2023-01-13T07:21:17.158Z,85.39
2023-01-13T07:22:17.144Z,85.28
2023-01-13T07:23:17.124Z,85.18
2023-01-13T07:24:17.135Z,85.28
2023-01-13T07:25:17.109Z,85.49
2023-01-13T07:26:17.088Z,85.60
2023-01-13T07:27:17.106Z,85.49
2023-01-13T07:28:17.069Z,85.49
2023-01-13T07:29:17.053Z,85.60
2023-01-13T07:30:17.046Z,85.49
2023-01-13T07:31:17.067Z,85.49
2023-01-13T07:32:17.013Z,84.98
2023-01-13T07:33:16.994Z,84.98
2023-01-13T07:34:16.998Z,85.18
2023-01-13T07:35:16.962Z,85.08
2023-01-13T07:36:16.956Z,85.28
2023-01-13T07:37:16.941Z,85.18
2023-01-13T07:38:16.931Z,85.18
2023-01-13T07:39:16.952Z,85.08
2023-01-13T07:40:16.903Z,84.88
2023-01-13T07:41:16.893Z,84.98
2023-01-13T07:42:16.892Z,84.88
2023-01-13T07:43:16.879Z,85.08
2023-01-13T07:44:16.861Z,84.88
2023-01-13T07:45:16.845Z,84.77
2023-01-13T07:46:16.892Z,84.67
2023-01-13T07:47:16.809Z,84.88
2023-01-13T07:48:16.844Z,84.56
2023-01-13T07:49:16.811Z,84.56
2023-01-13T07:50:16.788Z,84.67
2023-01-13T07:51:16.769Z,83.85
2023-01-13T07:52:16.760Z,83.75
2023-01-13T07:53:16.733Z,83.64
2023-01-13T07:54:17.195Z,83.95
2023-01-13T07:55:16.700Z,83.85
2023-01-13T07:56:16.703Z,83.85
2023-01-13T07:57:16.684Z,83.75
2023-01-13T07:58:16.663Z,84.16
2023-01-13T07:59:16.658Z,83.85
2023-01-13T08:00:16.653Z,84.56
2023-01-13T08:01:16.779Z,84.16
2023-01-13T08:02:16.843Z,83.95
2023-01-13T08:03:16.601Z,83.85
2023-01-13T08:04:16.601Z,83.85
2023-01-13T08:05:16.580Z,83.85
2023-01-13T08:06:16.599Z,83.85
2023-01-13T08:07:16.551Z,84.05
2023-01-13T08:08:16.542Z,84.05
2023-01-13T08:09:16.579Z,84.16
2023-01-13T08:10:16.509Z,84.36
2023-01-13T08:11:16.498Z,83.91
2023-01-13T08:12:16.491Z,84.16
2023-01-13T08:13:16.469Z,83.95
2023-01-13T08:14:16.486Z,83.61
2023-01-13T08:15:16.448Z,83.61
2023-01-13T08:16:16.462Z,83.61
2023-01-13T08:17:16.464Z,83.81
2023-01-13T08:18:16.499Z,83.91
2023-01-13T08:19:16.474Z,83.70
2023-01-13T08:20:16.437Z,83.50
2023-01-13T08:21:16.388Z,83.40
2023-01-13T08:22:16.392Z,83.19
2023-01-13T08:23:16.368Z,83.09
2023-01-13T08:24:16.339Z,83.09
2023-01-13T08:25:16.432Z,83.29
2023-01-13T08:26:16.339Z,83.19
2023-01-13T08:27:16.290Z,83.09
2023-01-13T08:28:16.268Z,83.40
2023-01-13T08:29:16.267Z,83.19
2023-01-13T08:30:16.281Z,83.09
2023-01-13T08:31:16.831Z,83.50
2023-01-13T08:32:16.214Z,83.61
2023-01-13T08:33:16.207Z,83.40
2023-01-13T08:34:16.197Z,83.19
2023-01-13T08:35:16.195Z,82.89
2023-01-13T08:36:16.180Z,82.78
2023-01-13T08:37:16.186Z,82.57
2023-01-13T08:38:16.135Z,82.78
2023-01-13T08:39:16.138Z,82.68
2023-01-13T08:40:16.125Z,82.57
2023-01-13T08:41:16.109Z,82.37
2023-01-13T08:42:16.076Z,82.17
2023-01-13T08:43:16.087Z,82.17
2023-01-13T08:44:16.084Z,82.06
2023-01-13T08:45:16.055Z,81.96
2023-01-13T08:46:16.152Z,81.76
2023-01-13T08:47:16.054Z,82.17
2023-01-13T08:48:16.006Z,82.06
2023-01-13T08:49:16.991Z,82.17
2023-01-13T08:50:16.004Z,81.76
2023-01-13T08:51:15.964Z,81.96
2023-01-13T08:52:15.956Z,81.55
2023-01-13T08:53:15.946Z,81.45
2023-01-13T08:54:15.925Z,81.14
2023-01-13T08:55:15.941Z,81.14
2023-01-13T08:56:15.901Z,81.34
2023-01-13T08:57:15.912Z,81.24
2023-01-13T08:58:16.349Z,81.04
2023-01-13T08:59:15.871Z,81.34
2023-01-13T09:00:15.884Z,81.14
2023-01-13T09:01:15.926Z,80.93
2023-01-13T09:02:16.023Z,80.83
2023-01-13T09:03:15.822Z,81.14
2023-01-13T09:04:15.847Z,81.24
2023-01-13T09:05:17.763Z,81.55
2023-01-13T09:06:15.790Z,81.65
2023-01-13T09:07:15.799Z,81.14
2023-01-13T09:08:15.749Z,80.93
2023-01-13T09:09:15.731Z,81.04
2023-01-13T09:10:15.721Z,81.24
2023-01-13T09:11:15.702Z,81.34
2023-01-13T09:12:15.688Z,81.45
2023-01-13T09:13:15.704Z,80.93
2023-01-13T09:14:15.652Z,80.73
2023-01-13T09:15:15.683Z,81.04
2023-01-13T09:16:15.711Z,80.93
2023-01-13T09:17:15.627Z,80.42
2023-01-13T09:18:15.775Z,80.52
2023-01-13T09:19:15.603Z,80.63
2023-01-13T09:20:15.586Z,80.73
2023-01-13T09:21:15.579Z,80.93
2023-01-13T09:22:15.563Z,80.73
2023-01-13T09:23:15.537Z,80.21
2023-01-13T09:24:15.530Z,80.18
2023-01-13T09:25:15.527Z,79.97
2023-01-13T09:26:15.499Z,79.97
2023-01-13T09:27:15.492Z,79.87
2023-01-13T09:28:15.572Z,79.97
2023-01-13T09:29:15.466Z,79.97
2023-01-13T09:30:15.468Z,79.97
2023-01-13T09:31:15.484Z,79.97
2023-01-13T09:32:15.417Z,79.56
2023-01-13T09:33:15.408Z,79.66
2023-01-13T09:34:15.395Z,79.97
2023-01-13T09:35:15.388Z,79.87
2023-01-13T09:36:15.371Z,80.07
2023-01-13T09:37:15.377Z,79.97
2023-01-13T09:38:15.341Z,80.07
2023-01-13T09:39:15.353Z,79.97
2023-01-13T09:40:15.324Z,79.87
2023-01-13T09:41:15.306Z,79.93
2023-01-13T09:42:15.286Z,79.63
2023-01-13T09:43:15.281Z,79.52
2023-01-13T09:44:15.267Z,78.94
2023-01-13T09:45:15.257Z,77.81
2023-01-13T09:46:15.267Z,78.46
2023-01-13T09:47:15.218Z,77.02
2023-01-13T09:48:15.207Z,75.01
2023-01-13T09:49:15.196Z,75.59
2023-01-13T09:50:15.199Z,74.29
2023-01-13T09:51:15.192Z,74.43
2023-01-13T09:52:15.206Z,75.45
2023-01-13T09:53:15.157Z,73.54
2023-01-13T09:54:15.128Z,74.73
2023-01-13T09:55:15.138Z,75.82
2023-01-13T09:56:15.101Z,76.89
2023-01-13T09:57:15.106Z,77.50
2023-01-13T09:58:15.094Z,77.98
2023-01-13T09:59:15.064Z,77.67
2023-01-13T10:00:15.101Z,77.57
2023-01-13T10:01:15.110Z,77.29
2023-01-13T10:02:15.028Z,76.40
2023-01-13T10:03:15.070Z,76.95
2023-01-13T10:04:15.178Z,77.61
2023-01-13T10:05:14.986Z,78.22
2023-01-13T10:06:14.982Z,78.74
2023-01-13T10:07:14.962Z,78.83
2023-01-13T10:08:14.960Z,78.42
2023-01-13T10:09:14.933Z,78.22
2023-01-13T10:10:14.909Z,78.12
2023-01-13T10:11:14.936Z,78.42
2023-01-13T10:12:14.881Z,78.53
2023-01-13T10:13:14.902Z,78.53
2023-01-13T10:14:14.865Z,78.70
2023-01-13T10:15:14.997Z,77.33
2023-01-13T10:16:15.105Z,76.17
2023-01-13T10:17:14.846Z,74.18
2023-01-13T10:18:14.842Z,73.40
2023-01-13T10:19:14.821Z,74.46
2023-01-13T10:20:14.785Z,75.72
2023-01-13T10:21:14.786Z,74.93
2023-01-13T10:22:14.760Z,72.21
2023-01-13T10:23:14.753Z,72.45
2023-01-13T10:24:14.726Z,73.03
2023-01-13T10:25:14.712Z,74.29
2023-01-13T10:26:14.755Z,74.19
2023-01-13T10:27:14.685Z,75.14
2023-01-13T10:28:14.695Z,75.55
2023-01-13T10:29:14.661Z,75.65
2023-01-13T10:30:14.652Z,75.10
2023-01-13T10:31:14.690Z,74.90
2023-01-13T10:32:14.611Z,75.01
2023-01-13T10:33:14.606Z,76.06
2023-01-13T10:34:14.593Z,76.17
2023-01-13T10:35:14.582Z,76.81
2023-01-13T10:36:14.603Z,77.16
2023-01-13T10:37:14.561Z,77.57
2023-01-13T10:38:14.541Z,77.87
2023-01-13T10:39:14.531Z,77.57
2023-01-13T10:40:14.520Z,77.91
2023-01-13T10:41:14.513Z,78.12
2023-01-13T10:42:14.492Z,78.28
2023-01-13T10:43:14.489Z,78.08
2023-01-13T10:44:14.467Z,78.28
2023-01-13T10:45:14.450Z,78.08
2023-01-13T10:46:14.474Z,77.87
2023-01-13T10:47:14.420Z,77.57
2023-01-13T10:48:14.414Z,76.37
2023-01-13T10:49:14.389Z,75.96
2023-01-13T10:50:14.380Z,75.86
2023-01-13T10:51:14.381Z,75.96
2023-01-13T10:52:14.384Z,76.61
2023-01-13T10:53:14.341Z,74.52
2023-01-13T10:54:14.320Z,73.20
2023-01-13T10:55:14.309Z,73.94
2023-01-13T10:56:14.313Z,74.49
2023-01-13T10:57:14.277Z,75.76
2023-01-13T10:58:14.262Z,76.10
2023-01-13T10:59:14.280Z,76.20
2023-01-13T11:00:14.248Z,76.81
2023-01-13T11:01:14.253Z,77.12
2023-01-13T11:02:25.307Z,77.43
2023-01-13T11:03:15.226Z,77.43
2023-01-13T11:04:14.191Z,76.92
2023-01-13T11:05:14.269Z,77.57
2023-01-13T11:06:14.172Z,77.98
2023-01-13T11:07:14.157Z,78.28
2023-01-13T11:08:14.140Z,78.59
2023-01-13T11:09:14.255Z,79.35
2023-01-13T11:10:14.119Z,79.14
2023-01-13T11:11:14.098Z,79.14
2023-01-13T11:12:14.099Z,79.24
2023-01-13T11:13:14.119Z,79.14
2023-01-13T11:14:14.062Z,79.55
2023-01-13T11:15:14.046Z,79.14
2023-01-13T11:16:14.079Z,79.24
2023-01-13T11:17:14.028Z,79.45
2023-01-13T11:18:13.997Z,79.86
2023-01-13T11:19:14.012Z,79.75
2023-01-13T11:20:13.978Z,80.07
2023-01-13T11:21:13.972Z,79.86
2023-01-13T11:22:13.960Z,79.90
2023-01-13T11:23:13.949Z,80.00
2023-01-13T11:24:13.927Z,79.90
2023-01-13T11:25:13.928Z,80.10
2023-01-13T11:26:13.895Z,80.00
2023-01-13T11:27:13.918Z,79.90
2023-01-13T11:28:13.875Z,79.69
2023-01-13T11:29:13.873Z,79.80
2023-01-13T11:30:13.866Z,80.00
2023-01-13T11:31:13.899Z,80.00
2023-01-13T11:32:13.867Z,80.10
2023-01-13T11:33:13.845Z,80.51
2023-01-13T11:34:13.803Z,80.00
2023-01-13T11:35:13.802Z,80.10
2023-01-13T11:36:13.766Z,80.21
2023-01-13T11:37:13.775Z,80.51
2023-01-13T11:38:13.761Z,81.13
2023-01-13T11:39:13.740Z,81.74
2023-01-13T11:40:13.803Z,82.26
2023-01-13T11:41:13.706Z,82.77
2023-01-13T11:42:13.702Z,83.63
2023-01-13T11:43:13.685Z,83.73
2023-01-13T11:44:13.666Z,84.34
2023-01-13T11:45:13.676Z,84.66
2023-01-13T11:46:13.754Z,83.98
2023-01-13T11:47:13.645Z,83.53
2023-01-13T11:48:13.613Z,83.32
2023-01-13T11:49:13.603Z,83.42
2023-01-13T11:50:13.584Z,83.32
2023-01-13T11:51:13.584Z,83.63
2023-01-13T11:52:13.574Z,83.63
2023-01-13T11:53:13.542Z,83.42
2023-01-13T11:54:13.536Z,83.32
2023-01-13T11:55:13.584Z,83.42
2023-01-13T11:56:13.514Z,83.53
2023-01-13T11:57:13.520Z,84.34
2023-01-13T11:58:13.482Z,83.94
2023-01-13T11:59:13.473Z,84.66
2023-01-13T12:00:13.455Z,84.80
2023-01-13T12:01:13.469Z,85.31
2023-01-13T12:02:13.478Z,85.82
2023-01-13T12:03:13.482Z,85.52
2023-01-13T12:04:13.392Z,86.24
2023-01-13T12:05:13.397Z,86.13
2023-01-13T12:06:13.371Z,86.33
2023-01-13T12:07:13.372Z,87.05
2023-01-13T12:08:13.360Z,87.26
2023-01-13T12:09:13.340Z,87.67
2023-01-13T12:10:13.834Z,87.88
2023-01-13T12:11:13.316Z,87.98
2023-01-13T12:12:13.310Z,87.98
2023-01-13T12:13:13.309Z,87.98
2023-01-13T12:14:13.271Z,87.92
2023-01-13T12:15:13.258Z,87.92
2023-01-13T12:16:13.294Z,88.33
2023-01-13T12:17:13.230Z,88.95
2023-01-13T12:18:13.230Z,88.53
2023-01-13T12:19:13.212Z,88.23
2023-01-13T12:20:13.198Z,88.02
2023-01-13T12:21:13.205Z,87.40
2023-01-13T12:22:13.164Z,86.89
2023-01-13T12:23:13.162Z,86.44
2023-01-13T12:24:13.145Z,85.82
2023-01-13T12:25:13.179Z,85.27
2023-01-13T12:26:13.110Z,84.90
2023-01-13T12:27:13.099Z,84.80
2023-01-13T12:28:13.090Z,84.66
2023-01-13T12:29:13.070Z,84.66
2023-01-13T12:30:13.117Z,84.34
2023-01-13T12:31:13.118Z,84.41
2023-01-13T12:32:13.039Z,84.14
2023-01-13T12:33:13.037Z,84.25
2023-01-13T12:34:13.021Z,84.55
2023-01-13T12:35:12.995Z,84.76
2023-01-13T12:36:12.978Z,84.96
2023-01-13T12:37:12.983Z,84.61
2023-01-13T12:38:12.984Z,84.82
2023-01-13T12:39:12.963Z,85.33
2023-01-13T12:40:12.961Z,85.58
2023-01-13T12:41:12.917Z,85.38
2023-01-13T12:42:12.901Z,86.33
2023-01-13T12:43:12.917Z,86.65
2023-01-13T12:44:12.876Z,86.95
2023-01-13T12:45:12.872Z,87.46
2023-01-13T12:46:12.915Z,87.67
2023-01-13T12:47:12.838Z,87.67
2023-01-13T12:48:12.836Z,87.46
2023-01-13T12:49:12.814Z,87.37
2023-01-13T12:50:12.797Z,87.26
2023-01-13T12:51:12.810Z,87.37
2023-01-13T12:52:12.796Z,86.85
2023-01-13T12:53:12.768Z,87.26
2023-01-13T12:54:12.744Z,86.85
2023-01-13T12:55:12.740Z,87.16
2023-01-13T12:56:12.716Z,87.05
2023-01-13T12:57:12.707Z,87.37
2023-01-13T12:58:12.704Z,87.57
2023-01-13T12:59:12.685Z,87.98
2023-01-13T13:00:12.656Z,88.18
2023-01-13T13:01:12.734Z,88.80
2023-01-13T13:02:13.091Z,89.93
2023-01-13T13:03:12.660Z,90.55
2023-01-13T13:04:12.610Z,90.44
2023-01-13T13:05:12.599Z,90.24
2023-01-13T13:06:12.587Z,90.34
2023-01-13T13:07:12.636Z,90.44
2023-01-13T13:08:12.568Z,89.93
2023-01-13T13:09:12.571Z,89.11
2023-01-13T13:10:12.528Z,89.36
2023-01-13T13:11:12.514Z,88.74
2023-01-13T13:12:12.504Z,89.15
2023-01-13T13:13:12.501Z,89.04
2023-01-13T13:14:12.513Z,88.74
2023-01-13T13:15:12.488Z,88.18
2023-01-13T13:16:13.428Z,88.08
2023-01-13T13:17:12.452Z,87.26
2023-01-13T13:18:12.424Z,86.75
2023-01-13T13:19:12.432Z,86.40
2023-01-13T13:20:12.391Z,85.89
2023-01-13T13:21:12.394Z,85.58
2023-01-13T13:22:12.372Z,85.89
2023-01-13T13:23:12.366Z,85.68
2023-01-13T13:24:12.351Z,85.38
2023-01-13T13:25:12.332Z,85.17
2023-01-13T13:26:12.315Z,84.96
2023-01-13T13:27:12.309Z,84.25
2023-01-13T13:28:12.347Z,84.25
2023-01-13T13:29:12.290Z,84.04
2023-01-13T13:30:12.265Z,83.63
2023-01-13T13:31:12.310Z,83.22
2023-01-13T13:32:12.250Z,82.70
2023-01-13T13:33:12.228Z,82.81
2023-01-13T13:34:12.234Z,82.70
2023-01-13T13:35:12.200Z,82.70
2023-01-13T13:36:12.194Z,83.01
2023-01-13T13:37:12.170Z,82.91
2023-01-13T13:38:12.190Z,83.12
2023-01-13T13:39:12.160Z,83.36
2023-01-13T13:40:12.127Z,83.56
2023-01-13T13:41:12.130Z,84.08
2023-01-13T13:42:12.109Z,84.39
2023-01-13T13:43:12.104Z,84.59
2023-01-13T13:44:12.089Z,84.80
2023-01-13T13:45:12.069Z,84.63
2023-01-13T13:46:12.144Z,84.53
2023-01-13T13:47:12.044Z,84.49
2023-01-13T13:48:12.035Z,84.49
2023-01-13T13:49:12.042Z,84.49
2023-01-13T13:50:12.025Z,84.63
2023-01-13T13:51:12.014Z,84.74
2023-01-13T13:52:12.008Z,85.00
2023-01-13T13:53:11.968Z,84.49
2023-01-13T13:54:11.967Z,84.12
2023-01-13T13:55:11.958Z,84.42
2023-01-13T13:56:11.927Z,84.74
2023-01-13T13:57:11.908Z,84.84
2023-01-13T13:58:11.898Z,84.63
2023-01-13T13:59:11.906Z,84.94
2023-01-13T14:00:11.868Z,85.25
2023-01-13T14:01:11.923Z,85.35
2023-01-13T14:02:11.903Z,85.35
2023-01-13T14:03:11.834Z,85.14
2023-01-13T14:04:11.832Z,84.94
2023-01-13T14:05:11.816Z,84.63
2023-01-13T14:06:11.786Z,84.63
2023-01-13T14:07:11.778Z,84.49
2023-01-13T14:08:11.741Z,84.42
2023-01-13T14:09:11.720Z,84.53
2023-01-13T14:10:11.710Z,84.42
2023-01-13T14:11:11.690Z,84.53
2023-01-13T14:12:11.676Z,84.42
2023-01-13T14:13:11.665Z,84.53
2023-01-13T14:14:11.650Z,84.63
2023-01-13T14:15:11.662Z,84.74
2023-01-13T14:16:11.672Z,84.42
2023-01-13T14:17:11.601Z,84.42
2023-01-13T14:18:11.600Z,84.53
2023-01-13T14:19:11.586Z,84.42
2023-01-13T14:20:11.587Z,84.12
2023-01-13T14:21:11.558Z,84.22
2023-01-13T14:22:11.534Z,84.12
2023-01-13T14:23:11.514Z,84.42
2023-01-13T14:24:11.505Z,84.77
2023-01-13T14:25:11.521Z,85.08
2023-01-13T14:26:11.481Z,85.39
2023-01-13T14:27:11.458Z,86.00
2023-01-13T14:28:11.463Z,86.52
2023-01-13T14:29:11.434Z,86.93
2023-01-13T14:30:11.437Z,87.75
2023-01-13T14:31:11.534Z,88.51
2023-01-13T14:32:11.401Z,88.92
2023-01-13T14:33:11.397Z,89.44
2023-01-13T14:34:32.289Z,89.64
2023-01-13T14:35:12.368Z,89.64
2023-01-13T14:36:11.374Z,89.23
2023-01-13T14:37:11.350Z,89.64
2023-01-13T14:38:11.378Z,89.75
2023-01-13T14:39:11.291Z,89.75
2023-01-13T14:40:11.314Z,89.85
2023-01-13T14:41:11.255Z,89.95
2023-01-13T14:42:11.272Z,90.06
2023-01-13T14:43:11.231Z,90.47
2023-01-13T14:44:11.222Z,90.57
2023-01-13T14:45:11.211Z,90.81
2023-01-13T14:46:11.281Z,90.81
2023-01-13T14:47:11.178Z,91.02
2023-01-13T14:48:11.177Z,91.02
2023-01-13T14:49:11.147Z,91.02
2023-01-13T14:50:11.159Z,91.23
2023-01-13T14:51:11.125Z,91.23
2023-01-13T14:52:11.107Z,91.23
2023-01-13T14:53:11.099Z,91.23
2023-01-13T14:54:11.086Z,91.53
2023-01-13T14:55:11.097Z,91.85
2023-01-13T14:56:11.056Z,91.85
2023-01-13T14:57:11.046Z,92.05
2023-01-13T14:58:11.036Z,92.25
2023-01-13T14:59:11.015Z,92.25
2023-01-13T15:00:11.004Z,92.25
2023-01-13T15:01:11.023Z,92.16
2023-01-13T15:02:11.036Z,92.16
2023-01-13T15:03:11.032Z,92.16
2023-01-13T15:04:10.951Z,92.57
2023-01-13T15:05:10.931Z,92.87
2023-01-13T15:06:10.942Z,93.18
2023-01-13T15:07:10.923Z,93.39
2023-01-13T15:08:10.908Z,93.59
2023-01-13T15:09:10.880Z,93.80
2023-01-13T15:10:10.871Z,94.11
2023-01-13T15:11:10.864Z,94.21
2023-01-13T15:12:10.842Z,94.15
2023-01-13T15:13:10.831Z,94.26
2023-01-13T15:14:10.811Z,94.05
2023-01-13T15:15:10.840Z,94.05
2023-01-13T15:16:10.886Z,94.05
2023-01-13T15:17:10.779Z,94.05
2023-01-13T15:18:10.760Z,93.95
2023-01-13T15:19:10.789Z,94.01
2023-01-13T15:20:10.726Z,93.80
2023-01-13T15:21:10.741Z,93.70
2023-01-13T15:22:10.710Z,93.59
2023-01-13T15:23:10.700Z,93.59
2023-01-13T15:24:10.678Z,93.49
2023-01-13T15:25:10.672Z,93.39
2023-01-13T15:26:10.667Z,93.29
2023-01-13T15:27:10.658Z,93.18
2023-01-13T15:28:10.635Z,93.08
2023-01-13T15:29:10.644Z,92.87
2023-01-13T15:30:10.597Z,92.57
2023-01-13T15:31:10.648Z,92.46
2023-01-13T15:32:10.575Z,92.46
2023-01-13T15:33:10.577Z,92.25
2023-01-13T15:34:10.547Z,92.25
2023-01-13T15:35:10.547Z,92.25
2023-01-13T15:36:10.536Z,92.16
2023-01-13T15:37:10.521Z,91.95
2023-01-13T15:38:10.499Z,92.05
2023-01-13T15:39:10.497Z,92.16
2023-01-13T15:40:10.476Z,92.05
2023-01-13T15:41:10.477Z,91.85
2023-01-13T15:42:10.437Z,91.74
2023-01-13T15:43:10.437Z,91.85
2023-01-13T15:44:10.464Z,91.53
2023-01-13T15:45:10.415Z,91.53
2023-01-13T15:46:10.421Z,91.44
2023-01-13T15:47:10.384Z,91.44
2023-01-13T15:48:10.363Z,91.44
2023-01-13T15:49:10.353Z,91.44
2023-01-13T15:50:10.340Z,91.44
2023-01-13T15:51:10.342Z,91.19
2023-01-13T15:52:11.020Z,91.33
2023-01-13T15:53:10.301Z,91.53
2023-01-13T15:54:10.281Z,91.53
2023-01-13T15:55:10.270Z,91.64
2023-01-13T15:56:10.278Z,91.64
2023-01-13T15:57:10.249Z,91.53
2023-01-13T15:58:10.229Z,91.64
2023-01-13T15:59:10.220Z,91.44
2023-01-13T16:00:10.201Z,91.33
2023-01-13T16:01:10.343Z,91.33
2023-01-13T16:03:02.806Z,91.23
2023-01-13T16:04:02.738Z,91.33
2023-01-13T16:05:02.732Z,91.33
2023-01-13T16:06:02.716Z,91.23
2023-01-13T16:07:02.726Z,91.02
2023-01-13T16:08:02.700Z,91.13
2023-01-13T16:09:03.732Z,91.23
2023-01-13T16:10:02.705Z,91.33
2023-01-13T16:11:02.640Z,91.33
2023-01-13T16:12:02.650Z,91.53
2023-01-13T16:13:02.622Z,91.74
2023-01-13T16:14:02.611Z,91.95
2023-01-13T16:15:02.593Z,92.16
2023-01-13T16:16:02.616Z,92.36
2023-01-13T16:17:02.583Z,92.67
2023-01-13T16:18:02.576Z,92.87
2023-01-13T16:19:02.547Z,93.08
2023-01-13T16:20:02.649Z,93.43
2023-01-13T16:21:02.530Z,93.74
2023-01-13T16:22:02.529Z,94.05
2023-01-13T16:23:02.523Z,94.26
2023-01-13T16:24:02.504Z,94.56
2023-01-13T16:25:02.484Z,94.77
2023-01-13T16:26:02.476Z,94.87
2023-01-13T16:27:02.469Z,94.98
2023-01-13T16:28:02.471Z,95.08
2023-01-13T16:29:02.458Z,95.08
2023-01-13T16:30:02.465Z,95.08
2023-01-13T16:31:02.415Z,95.23
2023-01-13T16:32:02.425Z,95.18
2023-01-13T16:33:02.394Z,95.08
2023-01-13T16:34:02.390Z,95.08
2023-01-13T16:35:02.375Z,94.98
2023-01-13T16:36:10.492Z,94.98
2023-01-13T16:37:03.390Z,94.87
2023-01-13T16:38:02.355Z,94.77
2023-01-13T16:39:02.338Z,94.77
2023-01-13T16:40:02.438Z,94.92
2023-01-13T16:41:02.314Z,94.81
2023-01-13T16:42:02.304Z,94.77
2023-01-13T16:43:02.298Z,94.67
2023-01-13T16:44:02.280Z,94.46
2023-01-13T16:45:02.277Z,94.36
2023-01-13T16:46:02.305Z,94.26
2023-01-13T16:47:02.259Z,94.15
2023-01-13T16:48:02.232Z,94.15
2023-01-13T16:49:02.223Z,94.05
2023-01-13T16:50:02.204Z,94.05
2023-01-13T16:51:02.206Z,93.95
2023-01-13T16:52:02.194Z,93.84
2023-01-13T16:53:02.166Z,93.54
2023-01-13T16:54:02.174Z,93.33
2023-01-13T16:55:02.179Z,93.02
2023-01-13T16:56:02.142Z,92.87
2023-01-13T16:57:02.150Z,92.57
2023-01-13T16:58:02.155Z,92.46
2023-01-13T16:59:02.110Z,92.25
2023-01-13T17:00:02.114Z,92.25
2023-01-13T17:01:02.164Z,92.16
2023-01-13T17:02:02.356Z,92.16
2023-01-13T17:03:02.062Z,91.85
2023-01-13T17:04:02.054Z,91.74
2023-01-13T17:05:02.046Z,91.74
2023-01-13T17:06:02.007Z,91.53
2023-01-13T17:07:02.030Z,91.33
2023-01-13T17:08:02.047Z,91.08
2023-01-13T17:09:01.985Z,90.98
2023-01-13T17:10:01.966Z,90.88
2023-01-13T17:11:01.954Z,90.88
2023-01-13T17:12:01.945Z,90.78
2023-01-13T17:13:14.137Z,90.78
2023-01-13T17:14:18.486Z,90.67
2023-01-13T17:15:02.904Z,90.57
2023-01-13T17:16:01.885Z,90.16
2023-01-13T17:17:01.900Z,89.95
2023-01-13T17:18:01.894Z,89.75
2023-01-13T17:19:01.863Z,89.85
2023-01-13T17:20:01.849Z,89.95
2023-01-13T17:21:01.834Z,89.95
2023-01-13T17:22:01.838Z,89.75
2023-01-13T17:23:01.820Z,89.64
2023-01-13T17:24:01.786Z,89.44
2023-01-13T17:25:01.791Z,89.34
2023-01-13T17:26:01.754Z,89.34
2023-01-13T17:27:01.797Z,89.54
2023-01-13T17:28:01.756Z,89.54
2023-01-13T17:29:01.743Z,89.44
2023-01-13T17:30:01.708Z,89.34
2023-01-13T17:31:01.712Z,89.34
2023-01-13T17:32:01.717Z,89.44
2023-01-13T17:33:01.701Z,89.23
2023-01-13T17:34:01.661Z,89.34
2023-01-13T17:35:01.662Z,89.13
2023-01-13T17:36:01.646Z,89.13
2023-01-13T17:37:01.636Z,89.13
2023-01-13T17:38:01.640Z,88.78
2023-01-13T17:39:01.676Z,88.98
2023-01-13T17:40:01.592Z,89.19
2023-01-13T17:41:01.574Z,89.29
2023-01-13T17:42:01.564Z,89.50
2023-01-13T17:43:01.561Z,89.64
2023-01-13T17:44:01.526Z,89.64
2023-01-13T17:45:01.514Z,89.64
2023-01-13T17:46:01.519Z,89.54
2023-01-13T17:47:01.495Z,89.54
2023-01-13T17:48:01.481Z,89.23
2023-01-13T17:49:01.459Z,89.19
2023-01-13T17:50:01.440Z,89.23
2023-01-13T17:51:01.429Z,89.19
2023-01-13T17:52:01.422Z,89.23
2023-01-13T17:53:01.430Z,89.09
2023-01-13T17:54:01.390Z,88.89
2023-01-13T17:55:01.398Z,88.98
2023-01-13T17:56:01.358Z,89.09
2023-01-13T17:57:01.357Z,89.34
2023-01-13T17:58:01.348Z,88.89
2023-01-13T17:59:01.335Z,88.68
2023-01-13T18:00:01.327Z,88.89
2023-01-13T18:01:01.371Z,88.57
2023-01-13T18:02:01.466Z,88.57
2023-01-13T18:03:01.315Z,88.57
2023-01-13T18:04:01.268Z,88.57
2023-01-13T18:05:01.257Z,88.47
2023-01-13T18:06:01.243Z,88.37
2023-01-13T18:07:01.239Z,88.37
2023-01-13T18:08:01.243Z,88.37